createdAt,value
2022-10-10T00:04:53.214Z,2.63
2022-10-10T00:10:02.410Z,2.80
2022-10-10T00:15:20.414Z,3.15
2022-10-10T00:20:22.377Z,2.47
2022-10-10T00:25:30.162Z,2.67
2022-10-10T00:30:34.443Z,3.20
2022-10-10T00:35:39.314Z,2.33
2022-10-10T00:40:46.672Z,2.47
2022-10-10T00:45:52.073Z,2.40
2022-10-10T00:51:22.474Z,2.33
2022-10-10T00:56:32.255Z,2.53
2022-10-10T01:01:34.630Z,2.37
2022-10-10T01:07:00.421Z,2.57
2022-10-10T01:12:32.263Z,2.57
2022-10-10T01:17:39.150Z,2.25
2022-10-10T01:22:59.442Z,2.00
2022-10-10T01:28:39.412Z,2.03
2022-10-10T01:33:44.104Z,2.97
2022-10-10T01:38:52.713Z,2.30
2022-10-10T01:43:59.867Z,2.30
2022-10-10T01:49:01.922Z,2.20
2022-10-10T01:54:31.921Z,2.27
2022-10-10T01:59:45.326Z,2.03
2022-10-10T02:04:59.061Z,1.90
2022-10-10T02:10:08.158Z,2.67
2022-10-10T02:15:17.646Z,1.83
2022-10-10T02:20:25.228Z,2.10
2022-10-10T02:25:30.206Z,2.17
2022-10-10T02:30:39.818Z,2.27
2022-10-10T02:35:45.803Z,2.67
2022-10-10T02:40:48.419Z,2.67
2022-10-10T02:45:54.253Z,2.40
2022-10-10T02:51:01.868Z,2.70
2022-10-10T02:56:06.438Z,2.77
2022-10-10T03:01:10.609Z,2.77
2022-10-10T03:06:17.628Z,2.70
2022-10-10T03:11:20.517Z,2.13
2022-10-10T03:16:24.570Z,2.40
2022-10-10T03:21:30.994Z,2.10
2022-10-10T03:26:32.844Z,1.87
2022-10-10T03:31:36.720Z,2.60
2022-10-10T03:36:43.180Z,2.13
2022-10-10T03:41:50.342Z,2.77
2022-10-10T03:46:56.647Z,2.30
2022-10-10T03:52:03.984Z,2.57
2022-10-10T03:57:07.918Z,2.77
2022-10-10T04:02:09.619Z,2.60
2022-10-10T04:07:13.873Z,2.60
2022-10-10T04:12:18.981Z,2.40
2022-10-10T04:17:23.358Z,2.63
2022-10-10T04:22:25.935Z,2.63
2022-10-10T04:27:27.688Z,2.90
2022-10-10T04:32:29.391Z,2.80
2022-10-10T04:37:34.296Z,2.80
2022-10-10T04:42:40.645Z,2.80
2022-10-10T04:47:44.945Z,2.97
2022-10-10T04:52:51.230Z,2.90
2022-10-10T04:57:57.613Z,3.30
2022-10-10T05:03:03.832Z,2.87
2022-10-10T05:08:06.096Z,3.13
2022-10-10T05:13:16.059Z,2.87
2022-10-10T05:18:20.454Z,3.40
2022-10-10T05:23:26.769Z,3.20
2022-10-10T05:28:29.685Z,4.13
2022-10-10T05:33:32.137Z,3.60
2022-10-10T05:38:39.116Z,3.30
2022-10-10T05:43:43.071Z,3.20
2022-10-10T05:48:44.802Z,3.77
2022-10-10T05:53:47.147Z,3.50
2022-10-10T05:58:53.942Z,3.87
2022-10-10T06:04:00.555Z,3.93
2022-10-10T06:09:03.741Z,3.70
2022-10-10T06:14:13.668Z,3.90
2022-10-10T06:19:18.275Z,4.23
2022-10-10T06:24:20.155Z,4.33
2022-10-10T06:29:22.904Z,4.30
2022-10-10T06:34:33.234Z,3.77
2022-10-10T06:39:37.825Z,3.57
2022-10-10T06:44:39.583Z,3.70
2022-10-10T06:49:43.669Z,3.40
2022-10-10T06:54:50.168Z,4.00
2022-10-10T06:59:54.181Z,4.00
2022-10-10T07:04:55.921Z,3.80
2022-10-10T07:09:57.581Z,3.30
2022-10-10T07:15:04.198Z,4.27
2022-10-10T07:20:08.664Z,4.13
2022-10-10T07:25:10.384Z,4.10
2022-10-10T07:30:14.865Z,3.93
2022-10-10T07:35:17.968Z,4.10
2022-10-10T07:40:19.682Z,3.40
2022-10-10T07:45:21.424Z,3.57
2022-10-10T07:50:26.091Z,3.63
2022-10-10T07:55:32.519Z,3.83
2022-10-10T08:00:37.509Z,3.60
2022-10-10T08:05:42.904Z,3.70
2022-10-10T08:10:44.816Z,4.13
2022-10-10T08:15:53.740Z,3.67
2022-10-10T08:21:05.230Z,3.30
2022-10-10T08:26:09.893Z,3.67
2022-10-10T08:31:15.070Z,4.07
2022-10-10T08:36:20.454Z,4.30
2022-10-10T08:41:39.597Z,3.70
2022-10-10T08:46:46.770Z,4.18
2022-10-10T08:51:57.386Z,3.60
2022-10-10T08:57:01.233Z,4.18
2022-10-10T09:02:53.218Z,3.92
2022-10-10T09:08:02.868Z,4.13
2022-10-10T09:13:26.310Z,4.25
2022-10-10T09:18:40.560Z,4.20
2022-10-10T09:23:57.474Z,4.13
2022-10-10T09:29:39.103Z,4.22
2022-10-10T09:34:49.038Z,4.55
2022-10-10T09:39:52.863Z,4.10
2022-10-10T09:44:54.597Z,4.88
2022-10-10T09:55:26.990Z,4.18
2022-10-10T10:00:40.574Z,4.10
2022-10-10T10:06:01.683Z,4.05
2022-10-10T10:11:06.352Z,4.40
2022-10-10T10:16:11.929Z,4.53
2022-10-10T10:21:23.655Z,4.38
2022-10-10T10:26:46.686Z,4.63
2022-10-10T10:31:53.315Z,4.20
2022-10-10T10:37:14.915Z,3.95
2022-10-10T10:42:54.191Z,4.68
2022-10-10T10:48:10.454Z,4.53
2022-10-10T10:53:35.991Z,4.75
2022-10-10T11:05:19.873Z,4.50
2022-10-10T11:10:36.577Z,3.97
2022-10-10T11:16:06.692Z,4.20
2022-10-10T11:21:18.375Z,3.97
2022-10-10T11:26:47.316Z,4.57
2022-10-10T11:31:49.989Z,4.25
2022-10-10T11:36:55.062Z,4.45
2022-10-10T11:42:19.106Z,4.38
2022-10-10T11:47:40.240Z,4.82
2022-10-10T11:52:59.064Z,4.53
2022-10-10T11:58:06.494Z,4.10
2022-10-10T12:03:15.774Z,4.82
2022-10-10T12:08:33.566Z,5.15
2022-10-10T12:13:35.870Z,4.35
2022-10-10T12:18:49.631Z,5.05
2022-10-10T12:24:11.372Z,5.00
2022-10-10T12:29:51.308Z,4.97
2022-10-10T12:34:53.203Z,5.38
2022-10-10T12:40:21.478Z,4.97
2022-10-10T12:45:31.661Z,4.40
2022-10-10T12:50:41.782Z,6.35
2022-10-10T12:55:50.198Z,5.72
2022-10-10T13:00:52.766Z,5.32
2022-10-10T13:05:56.368Z,5.43
2022-10-10T13:11:08.382Z,5.60
2022-10-10T13:16:15.452Z,5.82
2022-10-10T13:21:29.850Z,6.22
2022-10-10T13:26:33.050Z,5.85
2022-10-10T13:31:34.840Z,5.63
2022-10-10T13:36:38.741Z,6.53
2022-10-10T13:41:48.582Z,7.07
2022-10-10T13:46:53.011Z,6.30
2022-10-10T13:52:22.004Z,7.28
2022-10-10T13:57:27.726Z,8.30
2022-10-10T14:02:36.006Z,7.97
2022-10-10T14:07:48.191Z,7.78
2022-10-10T14:12:52.015Z,8.32
2022-10-10T14:17:55.350Z,8.23
2022-10-10T14:23:01.701Z,7.85
2022-10-10T14:28:06.150Z,8.82
2022-10-10T14:33:15.810Z,9.23
2022-10-10T14:38:20.816Z,8.73
2022-10-10T14:43:25.675Z,9.32
2022-10-10T14:48:33.788Z,10.15
2022-10-10T14:53:35.590Z,10.73
2022-10-10T14:58:42.193Z,10.70
2022-10-10T15:03:43.877Z,11.43
2022-10-10T15:08:45.563Z,14.23
2022-10-10T15:13:47.358Z,15.35
2022-10-10T15:18:54.417Z,14.85
2022-10-10T15:23:59.829Z,15.02
2022-10-10T15:29:01.657Z,6.20
2022-10-10T15:34:06.205Z,2.63
2022-10-10T15:39:14.142Z,1.75
2022-10-10T15:44:21.159Z,1.92
2022-10-10T15:49:25.260Z,2.30
2022-10-10T15:54:27.002Z,2.50
2022-10-10T15:59:37.934Z,2.28
2022-10-10T16:04:42.649Z,2.33
2022-10-10T16:09:49.661Z,2.92
2022-10-10T16:14:54.461Z,2.55
2022-10-10T16:19:56.533Z,2.70
2022-10-10T16:25:20.833Z,2.28
2022-10-10T16:30:20.978Z,2.65
2022-10-10T16:35:25.351Z,5.67
2022-10-10T16:40:29.316Z,2.60
2022-10-10T16:45:31.098Z,3.53
2022-10-10T16:50:35.130Z,2.95
2022-10-10T16:55:42.466Z,2.60
2022-10-10T17:00:47.203Z,2.90
2022-10-10T17:05:52.451Z,2.70
2022-10-10T17:10:58.359Z,2.63
2022-10-10T17:16:44.704Z,2.92
2022-10-10T17:21:29.120Z,3.25
2022-10-10T17:26:37.401Z,2.63
2022-10-10T17:31:41.943Z,3.03
2022-10-10T17:36:50.044Z,2.55
2022-10-10T17:41:54.166Z,3.70
2022-10-10T17:46:56.714Z,2.90
2022-10-10T17:51:58.435Z,2.25
2022-10-10T17:57:01.201Z,2.97
2022-10-10T18:02:05.048Z,3.10
2022-10-10T18:07:13.318Z,2.60
2022-10-10T18:12:16.108Z,2.80
2022-10-10T18:17:17.827Z,2.90
2022-10-10T18:22:19.590Z,3.25
2022-10-10T18:27:21.752Z,3.17
2022-10-10T18:32:25.542Z,3.40
2022-10-10T18:37:33.864Z,3.15
2022-10-10T18:42:38.480Z,3.63
2022-10-10T18:47:42.397Z,3.10
2022-10-10T18:52:47.721Z,3.08
2022-10-10T18:57:49.457Z,4.45
2022-10-10T19:02:51.550Z,3.80
2022-10-10T19:07:53.253Z,4.20
2022-10-10T19:12:54.971Z,4.32
2022-10-10T19:17:56.902Z,4.53
2022-10-10T19:23:02.450Z,4.57
2022-10-10T19:28:08.978Z,3.90
2022-10-10T19:33:12.739Z,4.00
2022-10-10T19:38:22.024Z,4.97
2022-10-10T19:43:26.265Z,4.22
2022-10-10T19:48:33.396Z,3.90
2022-10-10T19:53:39.892Z,4.32
2022-10-10T19:58:43.158Z,3.73
2022-10-10T20:03:48.816Z,4.23
2022-10-10T20:08:53.224Z,3.67
2022-10-10T20:13:55.891Z,3.17
2022-10-10T20:18:58.882Z,4.00
2022-10-10T20:24:03.599Z,4.03
2022-10-10T20:29:06.068Z,3.67
2022-10-10T20:34:14.937Z,3.20
2022-10-10T20:39:25.144Z,3.90
2022-10-10T20:44:26.935Z,3.37
2022-10-10T20:49:28.634Z,3.50
2022-10-10T20:54:30.329Z,3.73
2022-10-10T20:59:34.251Z,3.33
2022-10-10T21:04:37.136Z,3.50
2022-10-10T21:09:41.039Z,3.77
2022-10-10T21:14:50.398Z,2.70
2022-10-10T21:19:52.100Z,3.10
2022-10-10T21:24:56.051Z,2.77
2022-10-10T21:29:57.794Z,3.67
2022-10-10T21:35:01.867Z,3.27
2022-10-10T21:40:07.269Z,3.10
2022-10-10T21:45:09.546Z,3.10
2022-10-10T21:50:16.067Z,3.20
2022-10-10T21:55:17.838Z,3.67
2022-10-10T22:00:20.388Z,3.30
2022-10-10T22:05:22.171Z,2.53
2022-10-10T22:10:23.856Z,3.27
2022-10-10T22:15:25.549Z,3.20
2022-10-10T22:20:27.326Z,3.37
2022-10-10T22:25:31.546Z,3.60
2022-10-10T22:30:35.947Z,3.97
2022-10-10T22:35:41.099Z,3.63
2022-10-10T22:40:42.794Z,3.43
2022-10-10T22:45:44.775Z,3.33
2022-10-10T22:50:51.767Z,3.13
2022-10-10T22:55:54.503Z,3.27
2022-10-10T23:00:58.483Z,3.10
2022-10-10T23:06:05.527Z,2.60
2022-10-10T23:11:07.621Z,3.03
2022-10-10T23:16:12.767Z,3.10
2022-10-10T23:21:19.217Z,3.00
2022-10-10T23:26:20.972Z,4.30
2022-10-10T23:31:28.325Z,3.07
2022-10-10T23:36:34.532Z,3.30
2022-10-10T23:41:36.900Z,4.10
2022-10-10T23:46:41.292Z,3.93
2022-10-10T23:51:45.410Z,3.53
2022-10-10T23:56:49.923Z,3.50
